Aviation Digital Data Service (ADDS)

Output produced by METARs form (0156 UTC 25 February 2018)
found at http://www.aviationweather.gov/adds/metars/
 
OEAB 250100Z 18011KT CAVOK 17/07 Q1020 NOSIG
TAF OEAB 242300Z 2500/2606 VRB03KT 9999 FEW020 
     TEMPO 2500/2505 4000 BR 
     BECMG 2506/2508 20010G20KT 
     TEMPO 2510/2518 SCT020 FEW025CB
       
OEAH 250100Z 18013KT 7000 SCT040 OVC100 18/16 Q1010 RERA NOSIG
TAF OEAH 242300Z 2500/2606 22006G16KT 6000 SCT040 SCT100 
     TEMPO 2500/2512 VRB20KT 3000 BLDU TSRA FEW035CB BKN040 
     PROB30 
     TEMPO 2500/2506 VRB03KT 0800 FG SCT020
       
OEBA 250100Z 24005KT CAVOK 18/13 Q1016 NOSIG
TAF OEBA 242300Z 2500/2606 VRB03KT 7000 FEW030 
     TEMPO 2500/2506 4000 BR 
     PROB30 
     TEMPO 2500/2504 1000 
     BECMG 2506/2508 24010G20KT
       
OESK 250100Z 15005KT 8000 SKC 11/09 Q1014
TAF OESK 242300Z 2500/2606 VRB03KT 7000 SCT040 
     TEMPO 2500/2506 3000 BR 
     PROB30 
     TEMPO 2500/2504 1000 
     BECMG 2506/2508 26014KT
       
OERR 250100Z 23007KT CAVOK 09/09 Q1011 NOSIG
TAF OERR 242300Z 2500/2606 VRB03KT 7000 FEW030 
     TEMPO 2500/2508 3000 BR 
     PROB30 
     TEMPO 2500/2505 0800 FG 
     BECMG 2506/2508 26006G16KT
       
OEBH 250100Z 17007KT 5000 DU FEW030 19/12 Q1013 NOSIG
TAF OEBH 242300Z 2500/2606 VRB03KT 7000 FEW030 
     TEMPO 2500/2505 4000 BR 
     BECMG 2506/2508 08006KT 
     BECMG 2508/2510 25008G18KT 
     TEMPO 2510/2516 4000 DU BLDU SCT030
       
OEGS 250100Z 33003KT 9999 BKN030 14/14 Q1011
TAF OEGS 242300Z 2500/2606 VRB03KT 7000 SCT030 
     TEMPO 2500/2506 3000 BR 
     PROB30 
     TEMPO 2500/2504 0800 FG 
     BECMG 2506/2508 33013KT
       
OEGT 250100Z 28004KT 8000 SKC 08/06 Q1012
TAF OEGT 242300Z 2500/2606 25006KT 7000 SCT040 SCT100 
     TEMPO 2500/2506 3000 BR SCT020 
     PROB30 
     TEMPO 2501/2505 VRB03KT 0800 FG 
     BECMG 2504/2506 16013KT 
     PROB30 
     TEMPO 2506/2512 FEW035CB BKN040 
     BECMG 2510/2512 25006G16KT
       
OEHL 250100Z 00000KT CAVOK 10/09 Q1013
TAF OEHL 242300Z 2500/2606 33006KT 7000 FEW030 
     TEMPO 2500/2506 3000 BR 
     BECMG 2508/2510 27014KT
       
OEGN 250100Z 00000KT CAVOK 26/21 Q1006 NOSIG
TAF OEGN 242300Z 2500/2606 VRB03KT 7000 FEW030 
     BECMG 2506/2508 20015KT
       
OEDR 250100Z 21017KT 9999 -RA SCT040 BKN080 19/16 Q1008 NOSIG
TAF OEDR 242100Z 2500/2606 22007KT 5000 -RA BKN090 
     BECMG 2509/2511 34010KT 7000 NSC 
     BECMG 2515/2517 05010KT 
     TEMPO 2520/2606 4000 BR 
     PROB30 
     TEMPO 2522/2605 0800 FG
       
OEJN 250100Z 31006KT 9999 FEW040 24/21 Q1007 NOSIG
TAF OEJN 242300Z 2500/2606 36010KT 7000 FEW040 
     BECMG 2506/2508 30014KT
       
OEDF 250100Z 19010KT 9999 FEW040 SCT100 19/14 Q1010 NOSIG
TAF OEDF 242100Z 2500/2606 22007KT 5000 -RA BKN090 
     BECMG 2509/2511 34010KT 7000 NSC 
     BECMG 2515/2517 05010KT 
     TEMPO 2520/2606 4000 BR 
     PROB30 
     TEMPO 2522/2605 0800 FG
       
OEKM 250100Z 24003KT CAVOK 16/03 Q1020 NOSIG
TAF OEKM 242300Z 2500/2606 VRB03KT 9999 FEW020 
     TEMPO 2500/2505 4000 BR 
     BECMG 2506/2508 20010G20KT 
     TEMPO 2510/2518 SCT020 FEW025CB
       
OERK 250100Z 00000KT 9999 SCT040 BKN080 16/13 Q1010 NOSIG
TAF OERK 242300Z 2500/2606 26008KT 7000 SCT040 SCT080 
     TEMPO 2500/2508 3000 BR FEW020 
     PROB40 
     TEMPO 2500/2505 1500 
     BECMG 2506/2508 30012KT
       
OENG 250100Z 02008KT 0300 BLDU SKC 19/13 Q1016 NOSIG
TAF COR OENG 242300Z 2500/2606 02012G22KT 3000 DU BLDU FEW040 
     TEMPO 2500/2509 0500
       
OEMA 250100Z 33003KT 9999 FEW045 15/15 Q1013 NOSIG
TAF OEMA 242300Z 2500/2606 VRB03KT 7000 FEW040 
     TEMPO 2500/2506 3500 HZ BR 
     BECMG 2508/2510 30012KT
       
OEPA 250100Z 02005KT 0050 FG VV/// 13/13 Q1010 NOSIG
TAF OEPA 242300Z 2500/2606 VRB03KT 7000 SCT040 
     TEMPO 2500/2506 3000 BR 
     PROB30 
     TEMPO 2500/2504 0800 FG SCT020 
     BECMG 2504/2506 32014KT
       
OERF 250100Z 26002KT 3600 BR BKN040 10/09 Q1011
TAF OERF 242300Z 2500/2606 VRB03KT 7000 SCT030 
     TEMPO 2500/2506 3000 BR 
     PROB30 
     TEMPO 2500/2504 0800 FG 
     BECMG 2504/2506 29014KT
       
TAF OERY 242300Z 2500/2606 26013KT 6000 SCT040 SCT100 
     TEMPO 2500/2506 VRB20KT 3000 BLDU TSRA FEW035CB 
     PROB30 
     TEMPO 2500/2504 VRB03KT 0800 FG SCT020 
     BECMG 2504/2506 30014KT
       
OESH 250100Z 04016KT 0300 BLDU SKC 21/11 Q1011 NOSIG
TAF COR OESH 242300Z 2500/2606 02012G22KT 3000 DU BLDU FEW040 
     TEMPO 2500/2509 0500
       
OETB 250100Z 00000KT CAVOK 10/M02 Q1013 NOSIG
TAF OETB 242300Z 2500/2606 VRB03KT 7000 FEW040 SCT100 
     BECMG 2506/2508 26006G16KT
       
OETF 250100Z 23003KT CAVOK 14/11 Q1016 NOSIG
TAF OETF 242300Z 2500/2606 VRB03KT 8000 FEW030 
     TEMPO 2500/2505 3500 BR 
     PROB30 
     TEMPO 2500/2503 1000 
     BECMG 2508/2510 28014KT
       
OETR 250100Z 26006KT CAVOK 08/07 Q1012
TAF OETR 242300Z 2500/2606 VRB03KT 7000 SCT040 SCT100 
     TEMPO 2500/2506 3000 BR 
     PROB30 
     TEMPO 2500/2505 0800 FG SCT020 
     BECMG 2506/2508 24006G16KT
       
OEWD 250100Z 09008KT 4000 BR FEW030 BKN080 19/17 Q1011 NOSIG
TAF OEWD 242300Z 2500/2606 VRB03KT 7000 SCT040 SCT100 
     TEMPO 2500/2506 VRB20KT 3000 BLDU TSRA FEW035CB BKN040 
     PROB30 
     TEMPO 2500/2504 1000 
     BECMG 2506/2508 12013KT
       
OEWJ 250100Z 01007KT CAVOK 18/14 Q1009 NOSIG
TAF OEWJ 242300Z 2500/2606 VRB03KT 7000 NSC 
     BECMG 2506/2508 25014KT
       
OEYN 250100Z 27006KT CAVOK 18/04 Q1007 NOSIG
TAF OEYN 242300Z 2500/2606 VRB03KT 6000 FEW040 
     BECMG 2508/2510 24006G16KT